createdAt,value
2023-05-19T00:01:43.768Z,100689.03
2023-05-19T00:04:35.431Z,100683.41
2023-05-19T00:07:26.433Z,100678.69
2023-05-19T00:10:16.485Z,100686.41
2023-05-19T00:13:05.526Z,100654.06
2023-05-19T00:15:54.937Z,100596.38
2023-05-19T00:18:43.523Z,100669.28
2023-05-19T00:21:33.763Z,100549.09
2023-05-19T00:24:22.301Z,100668.59
2023-05-19T00:27:11.050Z,100669.00
2023-05-19T00:29:59.573Z,100669.31
2023-05-19T00:32:48.141Z,100677.94
2023-05-19T00:35:36.651Z,100674.81
2023-05-19T00:38:26.580Z,100678.97
2023-05-19T00:41:15.152Z,100672.91
2023-05-19T00:44:03.736Z,100670.13
2023-05-19T00:46:52.350Z,100669.81
2023-05-19T00:49:40.978Z,100671.28
2023-05-19T00:52:29.469Z,100668.97
2023-05-19T00:55:19.504Z,100664.25
2023-05-19T00:58:08.503Z,100663.50
2023-05-19T01:01:02.984Z,100674.59
2023-05-19T01:03:51.701Z,100672.78
2023-05-19T01:06:40.276Z,100668.78
2023-05-19T01:09:28.861Z,100663.81
2023-05-19T01:12:19.102Z,100664.63
2023-05-19T01:15:09.885Z,100662.41
2023-05-19T01:18:07.300Z,100667.25
2023-05-19T01:21:03.735Z,100620.28
2023-05-19T01:23:57.033Z,100527.84
2023-05-19T01:27:03.729Z,100656.47
2023-05-19T01:30:17.066Z,100657.03
2023-05-19T01:33:08.599Z,100656.94
2023-05-19T01:35:57.615Z,100649.94
2023-05-19T01:38:47.446Z,100657.91
2023-05-19T01:41:36.152Z,100668.16
2023-05-19T01:44:27.853Z,100663.19
2023-05-19T01:47:16.771Z,100657.16
2023-05-19T01:50:07.796Z,100655.72
2023-05-19T01:52:56.657Z,100665.22
2023-05-19T01:55:48.013Z,100635.47
2023-05-19T01:58:42.829Z,100661.63
2023-05-19T02:01:35.430Z,100658.09
2023-05-19T02:04:31.453Z,100663.75
2023-05-19T02:07:27.548Z,100661.81
2023-05-19T02:10:20.665Z,100665.50
2023-05-19T02:13:12.359Z,100674.66
2023-05-19T02:16:05.408Z,100675.03
2023-05-19T02:18:54.681Z,100670.69
2023-05-19T02:21:43.203Z,100675.59
2023-05-19T02:24:33.100Z,100674.47
2023-05-19T02:27:21.932Z,100682.34
2023-05-19T02:30:11.521Z,100674.66
2023-05-19T02:33:00.402Z,100667.19
2023-05-19T02:35:48.978Z,100676.31
2023-05-19T02:38:37.639Z,100658.22
2023-05-19T02:41:27.528Z,100659.88
2023-05-19T02:44:16.279Z,100669.88
2023-05-19T02:47:05.055Z,100664.03
2023-05-19T02:49:53.576Z,100667.75
2023-05-19T02:52:42.144Z,100669.31
2023-05-19T02:55:30.713Z,100665.97
2023-05-19T02:58:21.168Z,100666.81
2023-05-19T03:01:09.747Z,100672.53
2023-05-19T03:03:58.312Z,100667.91
2023-05-19T03:06:46.925Z,100662.09
2023-05-19T03:09:35.739Z,100652.09
2023-05-19T03:12:24.545Z,100658.13
2023-05-19T03:15:15.038Z,100655.38
2023-05-19T03:18:03.585Z,100658.13
2023-05-19T03:20:53.888Z,100640.66
2023-05-19T03:23:42.415Z,100655.31
2023-05-19T03:26:30.909Z,100658.00
2023-05-19T03:29:19.410Z,100659.38
2023-05-19T03:32:09.548Z,100656.53
2023-05-19T03:34:58.119Z,100640.28
2023-05-19T03:37:46.731Z,100652.94
2023-05-19T03:40:35.384Z,100650.97
2023-05-19T03:43:23.968Z,100654.69
2023-05-19T03:46:12.457Z,100651.34
2023-05-19T03:49:02.386Z,100665.84
2023-05-19T03:51:51.098Z,100661.50
2023-05-19T03:54:39.960Z,100670.56
2023-05-19T03:57:29.720Z,100675.06
2023-05-19T04:00:18.827Z,100671.91
2023-05-19T04:03:10.297Z,100673.41
2023-05-19T04:06:00.291Z,100679.94
2023-05-19T04:08:48.839Z,100679.31
2023-05-19T04:11:37.324Z,100676.44
2023-05-19T04:14:25.813Z,100687.41
2023-05-19T04:17:14.351Z,100687.25
2023-05-19T04:20:02.872Z,100670.47
2023-05-19T04:22:52.730Z,100681.00
2023-05-19T04:25:41.974Z,100679.88
2023-05-19T04:28:30.846Z,100679.88
2023-05-19T04:31:21.604Z,100673.50
2023-05-19T04:34:10.319Z,100680.34
2023-05-19T04:36:59.219Z,100682.56
2023-05-19T04:39:49.090Z,100684.88
2023-05-19T04:42:37.589Z,100689.88
2023-05-19T04:45:26.817Z,100689.53
2023-05-19T04:48:15.304Z,100695.53
2023-05-19T04:51:03.860Z,100690.44
2023-05-19T04:53:52.600Z,100699.22
2023-05-19T04:56:43.641Z,100695.81
2023-05-19T04:59:32.341Z,100703.59
2023-05-19T05:02:21.154Z,100693.13
2023-05-19T05:05:10.602Z,100704.38
2023-05-19T05:07:59.573Z,100704.03
2023-05-19T05:10:48.498Z,100664.22
2023-05-19T05:13:39.276Z,100698.94
2023-05-19T05:16:28.438Z,100705.88
2023-05-19T05:19:17.559Z,100671.78
2023-05-19T05:22:06.798Z,100702.09
2023-05-19T05:24:55.808Z,100704.06
2023-05-19T05:27:44.353Z,100696.56
2023-05-19T05:30:34.699Z,100705.16
2023-05-19T05:33:24.843Z,100694.28
2023-05-19T05:36:13.752Z,100692.94
2023-05-19T05:39:02.529Z,100703.94
2023-05-19T05:41:51.098Z,100696.53
2023-05-19T05:44:39.624Z,100710.69
2023-05-19T05:47:30.116Z,100690.31
2023-05-19T05:50:19.630Z,100702.47
2023-05-19T05:53:08.854Z,100699.41
2023-05-19T05:55:58.074Z,100692.03
2023-05-19T05:58:46.673Z,100695.22
2023-05-19T06:01:36.241Z,100699.41
2023-05-19T06:04:26.671Z,100688.19
2023-05-19T06:07:15.319Z,100696.59
2023-05-19T06:10:04.029Z,100696.03
2023-05-19T06:12:52.529Z,100690.06
2023-05-19T06:15:41.190Z,100691.44
2023-05-19T06:18:29.832Z,100663.78
2023-05-19T06:21:19.698Z,100688.78
2023-05-19T06:24:08.512Z,100686.34
2023-05-19T06:26:56.978Z,100690.16
2023-05-19T06:29:45.468Z,100696.38
2023-05-19T06:32:34.093Z,100700.16
2023-05-19T06:35:22.668Z,100690.44
2023-05-19T06:38:12.574Z,100697.97
2023-05-19T06:41:01.074Z,100696.31
2023-05-19T06:43:49.678Z,100702.50
2023-05-19T06:46:38.312Z,100703.34
2023-05-19T06:49:29.386Z,100712.44
2023-05-19T06:52:18.305Z,100705.22
2023-05-19T06:55:09.183Z,100697.94
2023-05-19T06:57:57.831Z,100696.88
2023-05-19T07:00:46.426Z,100684.38
2023-05-19T07:03:35.116Z,100695.69
2023-05-19T07:06:23.722Z,100700.06
2023-05-19T07:09:12.241Z,100699.41
2023-05-19T07:12:02.487Z,100698.06
2023-05-19T07:14:50.996Z,100701.47
2023-05-19T07:17:39.664Z,100701.59
2023-05-19T07:20:28.154Z,100631.38
2023-05-19T07:23:17.497Z,100688.19
2023-05-19T07:26:06.222Z,100690.28
2023-05-19T07:28:56.757Z,100687.44
2023-05-19T07:31:45.335Z,100681.16
2023-05-19T07:34:33.877Z,100673.66
2023-05-19T07:37:22.439Z,100684.16
2023-05-19T07:40:11.252Z,100668.16
2023-05-19T07:42:59.772Z,100678.19
2023-05-19T07:45:49.642Z,100677.81
2023-05-19T07:48:38.268Z,100673.41
2023-05-19T07:51:26.858Z,100677.34
2023-05-19T07:54:15.501Z,100671.06
2023-05-19T07:57:04.178Z,100611.81
2023-05-19T07:59:52.678Z,100664.44
2023-05-19T08:02:42.721Z,100665.53
2023-05-19T08:05:31.326Z,100658.94
2023-05-19T08:08:20.270Z,100665.91
2023-05-19T08:11:08.882Z,100668.38
2023-05-19T08:13:57.450Z,100655.06
2023-05-19T08:16:46.498Z,100656.25
2023-05-19T08:19:36.381Z,100655.91
2023-05-19T08:22:25.020Z,100651.44
2023-05-19T08:25:13.803Z,100648.88
2023-05-19T08:28:02.349Z,100648.69
2023-05-19T08:30:51.592Z,100646.81
2023-05-19T08:33:40.107Z,100643.97
2023-05-19T08:36:30.706Z,100643.03
2023-05-19T08:39:24.182Z,100639.81
2023-05-19T08:42:12.713Z,100642.41
2023-05-19T08:45:01.894Z,100650.19
2023-05-19T08:47:52.402Z,100640.25
2023-05-19T08:50:42.527Z,100643.38
2023-05-19T08:53:37.821Z,100643.03
2023-05-19T08:56:26.882Z,100646.47
2023-05-19T08:59:15.503Z,100639.81
2023-05-19T09:02:04.924Z,100640.72
2023-05-19T09:04:53.917Z,100644.91
2023-05-19T09:07:43.242Z,100632.66
2023-05-19T09:10:33.246Z,100635.13
2023-05-19T09:13:21.831Z,100623.25
2023-05-19T09:16:10.432Z,100625.47
2023-05-19T09:19:00.995Z,100628.91
2023-05-19T09:21:59.424Z,100590.94
2023-05-19T09:24:48.736Z,100625.34
2023-05-19T09:27:38.988Z,100636.09
2023-05-19T09:30:27.691Z,100621.81
2023-05-19T09:33:18.606Z,100619.09
2023-05-19T09:36:08.414Z,100543.41
2023-05-19T09:38:57.094Z,100622.56
2023-05-19T09:41:46.056Z,100612.03
2023-05-19T09:44:36.530Z,100619.81
2023-05-19T09:47:25.889Z,100612.53
2023-05-19T09:50:14.887Z,100627.84
2023-05-19T09:53:03.563Z,100618.25
2023-05-19T09:55:56.407Z,100583.81
2023-05-19T09:58:44.889Z,100603.97
2023-05-19T10:01:36.315Z,100611.66
2023-05-19T10:04:26.803Z,100608.53
2023-05-19T10:07:15.893Z,100599.31
2023-05-19T10:10:04.689Z,100598.84
2023-05-19T10:12:53.318Z,100599.31
2023-05-19T10:15:57.443Z,100584.66
2023-05-19T10:18:48.569Z,100584.78
2023-05-19T10:21:37.412Z,100589.56
2023-05-19T10:24:26.337Z,100589.56
2023-05-19T10:27:16.159Z,100590.31
2023-05-19T10:30:12.096Z,100593.00
2023-05-19T10:33:02.759Z,100594.22
2023-05-19T10:36:09.184Z,100583.13
2023-05-19T10:39:01.653Z,100591.13
2023-05-19T10:42:02.359Z,100589.88
2023-05-19T10:44:57.968Z,100591.94
2023-05-19T10:47:46.886Z,100586.84
2023-05-19T10:50:37.706Z,100584.22
2023-05-19T10:53:32.293Z,100591.88
2023-05-19T10:56:32.847Z,100582.97
2023-05-19T10:59:37.191Z,100587.28
2023-05-19T11:02:40.758Z,100587.47
2023-05-19T11:05:31.083Z,100588.25
2023-05-19T11:08:34.882Z,100590.38
2023-05-19T11:11:23.697Z,100585.28
2023-05-19T11:14:12.710Z,100580.84
2023-05-19T11:17:01.536Z,100567.13
2023-05-19T11:19:54.499Z,100574.06
2023-05-19T11:22:43.218Z,100570.84
2023-05-19T11:25:44.469Z,100566.25
2023-05-19T11:28:33.226Z,100565.84
2023-05-19T11:31:22.964Z,100568.16
2023-05-19T11:34:11.514Z,100560.09
2023-05-19T11:37:00.157Z,100572.41
2023-05-19T11:39:49.000Z,100566.09
2023-05-19T11:42:38.864Z,100563.31
2023-05-19T11:45:27.793Z,100567.25
2023-05-19T11:48:17.288Z,100532.88
2023-05-19T11:51:07.241Z,100566.31
2023-05-19T11:53:56.006Z,100573.47
2023-05-19T11:56:44.521Z,100561.28
2023-05-19T11:59:36.263Z,100528.94
2023-05-19T12:02:27.498Z,100563.66
2023-05-19T12:05:19.729Z,100530.59
2023-05-19T12:08:08.795Z,100568.13
2023-05-19T12:10:57.760Z,100563.31
2023-05-19T12:13:46.315Z,100569.53
2023-05-19T12:16:36.592Z,100573.59
2023-05-19T12:19:25.835Z,100569.13
2023-05-19T12:22:15.889Z,100577.75
2023-05-19T12:25:05.830Z,100563.59
2023-05-19T12:27:58.822Z,100573.72
2023-05-19T12:30:49.310Z,100576.56
2023-05-19T12:33:39.590Z,100575.97
2023-05-19T12:36:28.800Z,100570.19
2023-05-19T12:39:18.910Z,100574.31
2023-05-19T12:42:09.619Z,100573.38
2023-05-19T12:45:00.684Z,100479.03
2023-05-19T12:47:50.265Z,100580.72
2023-05-19T12:50:40.201Z,100576.22
2023-05-19T12:53:28.748Z,100574.66
2023-05-19T12:56:17.474Z,100580.94
2023-05-19T12:59:06.068Z,100568.28
2023-05-19T13:01:58.450Z,100573.97
2023-05-19T13:04:47.032Z,100581.41
2023-05-19T13:07:36.912Z,100565.34
2023-05-19T13:10:27.032Z,100573.38
2023-05-19T13:13:15.856Z,100563.34
2023-05-19T13:16:04.487Z,100568.22
2023-05-19T13:18:53.422Z,100564.31
2023-05-19T13:21:42.214Z,100553.81
2023-05-19T13:24:32.134Z,100550.06
2023-05-19T13:27:20.636Z,100511.03
2023-05-19T13:30:10.033Z,100562.53
2023-05-19T13:32:58.671Z,100555.22
2023-05-19T13:35:47.231Z,100553.25
2023-05-19T13:38:35.946Z,100548.75
2023-05-19T13:41:26.800Z,100551.13
2023-05-19T13:44:15.459Z,100553.00
2023-05-19T13:47:04.100Z,100552.88
2023-05-19T13:49:52.948Z,100547.56
2023-05-19T13:52:41.856Z,100544.75
2023-05-19T13:55:30.396Z,100542.25
2023-05-19T13:58:20.301Z,100543.31
2023-05-19T14:01:09.427Z,100536.28
2023-05-19T14:03:58.172Z,100538.03
2023-05-19T14:06:46.929Z,100540.16
2023-05-19T14:09:35.449Z,100542.41
2023-05-19T14:12:30.956Z,100531.78
2023-05-19T14:15:29.590Z,100529.31
2023-05-19T14:18:18.136Z,100539.06
2023-05-19T14:21:07.057Z,100529.28
2023-05-19T14:23:55.665Z,100517.41
2023-05-19T14:26:44.228Z,100524.72
2023-05-19T14:29:33.264Z,100524.91
2023-05-19T14:32:23.168Z,100520.44
2023-05-19T14:35:12.069Z,100514.13
2023-05-19T14:38:00.645Z,100525.41
2023-05-19T14:40:49.376Z,100515.84
2023-05-19T14:43:37.949Z,100507.63
2023-05-19T14:46:26.596Z,100521.09
2023-05-19T14:49:16.531Z,100518.75
2023-05-19T14:52:05.424Z,100486.88
2023-05-19T14:54:54.161Z,100516.78
2023-05-19T14:57:43.019Z,100520.44
2023-05-19T15:00:31.831Z,100518.09
2023-05-19T15:03:20.455Z,100514.00
2023-05-19T15:06:11.514Z,100518.56
2023-05-19T15:09:00.131Z,100516.09
2023-05-19T15:11:48.712Z,100518.81
2023-05-19T15:14:37.189Z,100511.75
2023-05-19T15:17:25.862Z,100505.38
2023-05-19T15:20:14.518Z,100481.59
2023-05-19T15:23:04.402Z,100514.34
2023-05-19T15:25:53.049Z,100505.88
2023-05-19T15:28:41.624Z,100510.34
2023-05-19T15:31:30.195Z,100514.22
2023-05-19T15:34:18.804Z,100506.81
2023-05-19T15:37:07.373Z,100497.03
2023-05-19T15:39:57.252Z,100505.38
2023-05-19T15:42:45.785Z,100503.50
2023-05-19T15:45:34.339Z,100496.91
2023-05-19T15:48:22.875Z,100503.50
2023-05-19T15:51:11.483Z,100496.53
2023-05-19T15:54:00.054Z,100493.47
2023-05-19T15:56:50.004Z,100491.66
2023-05-19T15:59:38.636Z,100488.00
2023-05-19T16:02:27.357Z,100483.94
2023-05-19T16:05:16.726Z,100480.03
2023-05-19T16:08:07.714Z,100477.19
2023-05-19T16:10:57.288Z,100440.34
2023-05-19T16:13:47.194Z,100481.09
2023-05-19T16:16:36.316Z,100475.19
2023-05-19T16:19:25.059Z,100470.22
2023-05-19T16:22:13.708Z,100457.47
2023-05-19T16:25:02.217Z,100454.41
2023-05-19T16:27:50.713Z,100456.53
2023-05-19T16:30:40.629Z,100454.22
2023-05-19T16:33:30.003Z,100461.28
2023-05-19T16:36:18.542Z,100449.00
2023-05-19T16:39:07.077Z,100454.22
2023-05-19T16:41:55.737Z,100443.84
2023-05-19T16:44:44.293Z,100436.06
2023-05-19T16:47:34.206Z,100442.41
2023-05-19T16:50:22.814Z,100441.81
2023-05-19T16:53:11.389Z,100439.34
2023-05-19T16:56:00.378Z,100438.78
2023-05-19T16:58:49.008Z,100435.44
2023-05-19T17:01:37.576Z,100411.19
2023-05-19T17:04:29.938Z,100423.69
2023-05-19T17:07:19.278Z,100425.09
2023-05-19T17:10:08.841Z,100432.75
2023-05-19T17:12:57.467Z,100434.16
2023-05-19T17:15:46.186Z,100433.81
2023-05-19T17:18:35.277Z,100398.13
2023-05-19T17:21:25.176Z,100425.00
2023-05-19T17:24:13.759Z,100436.28
2023-05-19T17:27:02.534Z,100386.81
2023-05-19T17:29:51.126Z,100422.28
2023-05-19T17:32:39.887Z,100417.31
2023-05-19T17:35:28.751Z,100426.25
2023-05-19T17:38:18.714Z,100430.25
2023-05-19T17:41:10.067Z,100372.03
2023-05-19T17:43:58.739Z,100425.00
2023-05-19T17:46:47.349Z,100421.81
2023-05-19T17:49:36.102Z,100409.78
2023-05-19T17:52:25.775Z,100426.63
2023-05-19T17:55:16.378Z,100419.56
2023-05-19T17:58:05.724Z,100404.16
2023-05-19T18:00:55.024Z,100405.31
2023-05-19T18:03:49.138Z,100400.28
2023-05-19T18:06:38.988Z,100405.72
2023-05-19T18:09:29.006Z,100400.28
2023-05-19T18:12:19.222Z,100369.94
2023-05-19T18:15:08.483Z,100412.28
2023-05-19T18:17:57.135Z,100385.72
2023-05-19T18:20:45.809Z,100411.59
2023-05-19T18:23:34.358Z,100396.41
2023-05-19T18:26:22.984Z,100396.09
2023-05-19T18:29:14.592Z,100406.31
2023-05-19T18:32:03.269Z,100351.13
2023-05-19T18:34:52.112Z,100402.66
2023-05-19T18:37:40.716Z,100383.97
2023-05-19T18:40:29.297Z,100405.25
2023-05-19T18:43:17.838Z,100401.63
2023-05-19T18:46:07.937Z,100396.81
2023-05-19T18:48:56.585Z,100392.22
2023-05-19T18:51:48.340Z,100393.66
2023-05-19T18:54:37.599Z,100399.44
2023-05-19T18:57:26.343Z,100365.16
2023-05-19T19:00:15.626Z,100384.84
2023-05-19T19:03:05.700Z,100390.59
2023-05-19T19:05:57.697Z,100393.38
2023-05-19T19:08:46.489Z,100397.97
2023-05-19T19:11:35.046Z,100387.50
2023-05-19T19:14:23.570Z,100389.47
2023-05-19T19:17:12.129Z,100386.41
2023-05-19T19:20:02.093Z,100382.75
2023-05-19T19:22:51.255Z,100393.81
2023-05-19T19:25:39.801Z,100388.69
2023-05-19T19:28:28.460Z,100397.72
2023-05-19T19:31:17.006Z,100393.69
2023-05-19T19:34:09.115Z,100398.97
2023-05-19T19:36:59.068Z,100277.81
2023-05-19T19:39:47.678Z,100404.91
2023-05-19T19:42:38.163Z,100401.25
2023-05-19T19:45:26.760Z,100405.22
2023-05-19T19:48:15.272Z,100405.06
2023-05-19T19:51:03.987Z,100407.63
2023-05-19T19:53:53.865Z,100407.25
2023-05-19T19:56:42.407Z,100395.50
2023-05-19T19:59:30.969Z,100406.06
2023-05-19T20:02:19.767Z,100398.03
2023-05-19T20:05:09.046Z,100396.22
2023-05-19T20:07:57.667Z,100399.31
2023-05-19T20:10:48.407Z,100369.66
2023-05-19T20:13:37.035Z,100404.56
2023-05-19T20:16:25.872Z,100363.75
2023-05-19T20:19:14.591Z,100405.25
2023-05-19T20:22:03.112Z,100406.59
2023-05-19T20:24:51.685Z,100399.31
2023-05-19T20:27:41.702Z,100400.72
2023-05-19T20:30:30.420Z,100402.31
2023-05-19T20:33:19.046Z,100389.72
2023-05-19T20:36:08.108Z,100388.50
2023-05-19T20:38:56.682Z,100376.28
2023-05-19T20:41:45.220Z,100378.16
2023-05-19T20:44:35.613Z,100375.75
2023-05-19T20:47:24.174Z,100351.84
2023-05-19T20:50:12.785Z,100376.88
2023-05-19T20:53:01.731Z,100384.72
2023-05-19T20:55:50.320Z,100374.38
2023-05-19T20:58:39.094Z,100378.34
2023-05-19T21:01:29.877Z,100371.13
2023-05-19T21:04:18.628Z,100367.19
2023-05-19T21:07:07.281Z,100372.53
2023-05-19T21:09:56.628Z,100370.06
2023-05-19T21:12:46.324Z,100371.34
2023-05-19T21:15:35.021Z,100368.66
2023-05-19T21:18:24.909Z,100370.69
2023-05-19T21:21:13.434Z,100365.94
2023-05-19T21:24:02.214Z,100377.00
2023-05-19T21:26:51.442Z,100364.75
2023-05-19T21:29:39.986Z,100364.31
2023-05-19T21:32:29.686Z,100361.25
2023-05-19T21:35:19.752Z,100374.13
2023-05-19T21:38:22.135Z,100361.53
2023-05-19T21:41:12.245Z,100363.16
2023-05-19T21:44:00.782Z,100355.06
2023-05-19T21:46:49.385Z,100353.88
2023-05-19T21:49:38.290Z,100365.06
2023-05-19T21:52:28.288Z,100354.94
2023-05-19T21:55:17.000Z,100343.09
2023-05-19T21:58:05.582Z,100353.88
2023-05-19T22:00:56.055Z,100353.00
2023-05-19T22:03:45.464Z,100347.00
2023-05-19T22:06:34.429Z,100341.88
2023-05-19T22:09:24.335Z,100337.91
2023-05-19T22:12:12.945Z,100347.59
2023-05-19T22:15:02.826Z,100348.03
2023-05-19T22:17:51.514Z,100347.59
2023-05-19T22:20:40.209Z,100342.44
2023-05-19T22:23:28.980Z,100342.44
2023-05-19T22:26:19.070Z,100327.75
2023-05-19T22:29:07.893Z,100322.38
2023-05-19T22:31:56.432Z,100346.44
2023-05-19T22:34:45.222Z,100333.72
2023-05-19T22:37:33.894Z,100331.47
2023-05-19T22:40:22.416Z,100328.19
2023-05-19T22:43:12.348Z,100325.72
2023-05-19T22:46:01.026Z,100324.03
2023-05-19T22:48:49.564Z,100320.75
2023-05-19T22:51:39.290Z,100324.88
2023-05-19T22:54:27.856Z,100316.63
2023-05-19T22:57:22.766Z,100317.84
2023-05-19T23:00:14.684Z,100316.63
2023-05-19T23:03:03.320Z,100316.63
2023-05-19T23:05:51.896Z,100311.44
2023-05-19T23:08:40.575Z,100314.53
2023-05-19T23:11:29.125Z,100307.63
2023-05-19T23:14:18.508Z,100305.88
2023-05-19T23:17:08.709Z,100313.38
2023-05-19T23:19:57.479Z,100306.56
2023-05-19T23:22:46.003Z,100311.28
2023-05-19T23:25:34.844Z,100297.84
2023-05-19T23:28:23.625Z,100298.03
2023-05-19T23:31:12.176Z,100300.72
2023-05-19T23:34:02.069Z,100290.81
2023-05-19T23:36:52.347Z,100304.72
2023-05-19T23:39:41.108Z,100299.59
2023-05-19T23:42:29.686Z,100312.25
2023-05-19T23:45:18.409Z,100312.47
2023-05-19T23:48:07.355Z,100317.25
2023-05-19T23:50:58.155Z,100312.69
2023-05-19T23:53:46.891Z,100312.06
2023-05-19T23:56:35.392Z,100310.66
2023-05-19T23:59:24.020Z,100303.84
